Terminal Aerodrome Forecast
Issued by NWS Green Bay, WI

Home | Current Version | Previous Version | Text Only | Print | Product List | Glossary On
Versions: 1 2 3 4 5 6 7 8 9 10 11 12 13 14 15 16 17
000
FTUS43 KGRB 231832 AAB
TAFGRB
TAF AMD
KGRB 231832Z 2319/2418 05016G22KT P6SM SCT025
     FM240000 07010KT P6SM SCT025
     FM240700 07006KT P6SM SCT150
     FM241400 14009G15KT P6SM SCT150=

USA.gov is the U.S. government's official web portal to all federal, state and local government web resources and services.